Potsdam, NY (13676)

7:45 AM EDT on September 04, 2015 (GMT -0400)
NonFedAWOS | | Change Station
CLOSE
Current Station
Personal Weather Station
Location: Potsdam, NY
Elevation: 473 ft
Nearby Weather Stations

Elev 473 ft 44.68 °N, 74.95 °W | Updated 17 minutes ago

Clear
Clear
54 °F
Feels Like 54 °F
N
0
Wind Variable Wind from North
Gusts 0.0 mph

Today
High -- | Low -- °F
--% Chance of Precip.
Yesterday
High -- | Low -- °F
Precip. -- in
6:25 AM 7:31 PM
Waning Gibbous, 60% visible
Pressure 30.14 in
Visibility 9.0 miles
Clouds Clear
Dew Point 52 °F
Humidity 94%
Rainfall in
Snow Depth Not available.
UV 0 out of 12
Pollen 8.80 out of 12
Air Quality Not available.
Flu Activity Not available.
METAR KMSS 041053Z AUTO 00000KT 9SM CLR 09/08 A3014 RMK AO2 SLP207 T00940078
Pressure 30.14 in
Visibility 9.0 miles
Clouds Clear
Dew Point 52 °F
Humidity 94%
Rainfall in
Snow Depth Not available.
UV 0 out of 12
Pollen 8.80 out of 12
Air Quality Not available.
Flu Activity Not available.
METAR KMSS 041053Z AUTO 00000KT 9SM CLR 09/08 A3014 RMK AO2 SLP207 T00940078

10-Day Weather Forecast

×

Almanac

Astronomy

Sep. 04, 2015 Rise Set
Actual Time
Civil Twilight
Nautical Twilight
Astronomical Twilight
Moon
Length of Visible Light
Length of Day
Tomorrow will be .
, % of the Moon is Illuminated

Today's Extremes

State Highs State Lows

Community

WunderPhotos

Upload Photos

1,852,157 photos uploaded!

WunderBlogs® & News

Nearby

Air Quality

  Air Quality AQ Index Pollutant
Not available.

Snow Depth

Station Depth Elevation

Earthquake Activity

City Distance Mag. Time & Date
Minimum magnitude displayed is 2.5.

Coastal Water Temperatures

Place Temperature

Stations

Nearby Weather Stations

Station Location Temp. Windchill Dew Point Humidity Wind Precip. Elev Updated Type